Time;durP1;ratioP1;P1;durP2;ratioP2;P2;SDS_P1;SDS_P2;PMS_P1;PMS_P2;Temp;Humidity;BMP_temperature;BMP_pressure;BME280_temperature;BME280_humidity;BME280_pressure;Samples;Min_cycle;Max_cycle;Signal;HPM_P1;HPM_P2
2021/11/17 02:28:30;;;;;;;59.63;30.00;;;10.10;99.90;;;;;;4970816;28;20121;-82
2021/11/17 02:31:29;;;;;;;56.42;27.33;;;10.10;99.90;;;;;;4978516;28;20038;-82
2021/11/17 02:34:27;;;;;;;55.20;27.83;;;10.10;99.90;;;;;;4972978;28;20050;-81
2021/11/17 02:37:07;;;;;;;56.42;28.13;;;10.10;99.90;;;;;;4963800;28;20070;-81
2021/11/17 02:39:42;;;;;;;54.50;26.17;;;10.00;99.90;;;;;;4976883;28;20047;-81
2021/11/17 02:42:14;;;;;;;;;;;10.00;99.90;;;;;;4977593;28;20032;-82
2021/11/17 02:45:01;;;;;;;47.53;23.42;;;9.90;99.90;;;;;;4974763;28;19906;-82
2021/11/17 02:47:58;;;;;;;51.10;24.90;;;9.90;99.90;;;;;;4975548;28;20089;-81
2021/11/17 02:50:49;;;;;;;45.92;23.17;;;9.90;99.90;;;;;;4980370;28;20056;-82
2021/11/17 02:53:16;;;;;;;44.90;22.70;;;9.80;99.90;;;;;;4967798;28;20511;-82
2021/11/17 02:55:59;;;;;;;39.47;21.65;;;9.70;99.90;;;;;;4974367;28;20506;-81
2021/11/17 02:58:44;;;;;;;41.08;20.75;;;9.60;99.90;;;;;;4956461;28;20109;-81
2021/11/17 03:01:24;;;;;;;38.13;21.17;;;9.50;99.90;;;;;;4973995;28;20126;-82
2021/11/17 03:04:18;;;;;;;42.03;21.52;;;9.40;99.90;;;;;;4973869;28;20069;-82
2021/11/17 03:07:08;;;;;;;46.10;21.30;;;9.40;99.90;;;;;;4972904;28;20027;-82
2021/11/17 03:09:55;;;;;;;43.22;22.38;;;9.30;99.90;;;;;;4975911;28;20039;-81
2021/11/17 03:12:29;;;;;;;40.95;21.15;;;9.20;99.90;;;;;;4974517;28;20081;-82
2021/11/17 03:15:32;;;;;;;36.80;20.27;;;9.20;99.90;;;;;;4980816;28;20027;-81
2021/11/17 03:17:57;;;;;;;39.22;19.65;;;9.20;99.90;;;;;;4981794;28;20035;-81
2021/11/17 03:21:11;;;;;;;36.55;20.02;;;9.10;99.90;;;;;;4974696;28;20093;-82
2021/11/17 03:23:48;;;;;;;46.63;21.15;;;9.00;99.90;;;;;;4899134;29;20527;-82
2021/11/17 03:26:23;;;;;;;43.72;21.45;;;9.00;99.90;;;;;;4920200;29;20318;-82
2021/11/17 03:29:31;;;;;;;45.38;21.90;;;9.00;99.90;;;;;;4954672;28;20043;-82
2021/11/17 03:32:05;;;;;;;45.67;23.70;;;8.90;99.90;;;;;;4945761;28;20038;-82
2021/11/17 03:35:08;;;;;;;43.53;21.08;;;8.80;99.90;;;;;;4976553;28;20029;-81
2021/11/17 03:37:48;;;;;;;45.72;21.10;;;8.80;99.90;;;;;;4981534;28;20019;-82
2021/11/17 03:40:16;;;;;;;43.08;20.75;;;8.80;99.90;;;;;;4972073;28;20027;-82
2021/11/17 03:43:11;;;;;;;40.97;19.10;;;8.70;99.90;;;;;;4974618;28;20187;-82
2021/11/17 03:45:37;;;;;;;;;;;8.70;99.90;;;;;;4976066;28;20134;-82
2021/11/17 03:48:24;;;;;;;44.40;21.30;;;8.60;99.90;;;;;;4973293;28;20366;-81
2021/11/17 03:51:07;;;;;;;40.53;21.17;;;8.60;99.90;;;;;;4973634;28;20045;-82
2021/11/17 03:53:55;;;;;;;41.80;21.10;;;8.50;99.90;;;;;;4973758;28;20023;-82
2021/11/17 03:57:01;;;;;;;41.30;20.48;;;8.50;99.90;;;;;;4959559;28;20516;-81
2021/11/17 03:59:42;;;;;;;43.50;20.85;;;8.40;99.90;;;;;;4978337;28;20029;-81
2021/11/17 04:02:22;;;;;;;40.60;20.67;;;8.40;99.90;;;;;;4975028;28;20498;-81
2021/11/17 04:04:57;;;;;;;43.10;21.17;;;8.30;99.90;;;;;;4972910;28;20046;-83
2021/11/17 04:07:37;;;;;;;40.85;21.27;;;8.30;99.90;;;;;;4976951;28;20105;-82
2021/11/17 04:10:34;;;;;;;49.10;22.52;;;8.30;99.90;;;;;;4973472;28;20118;-83
2021/11/17 04:13:09;;;;;;;41.88;22.15;;;8.20;99.90;;;;;;4978358;28;20030;-82
2021/11/17 04:15:56;;;;;;;39.92;20.65;;;8.30;99.90;;;;;;4973505;28;20210;-82
2021/11/17 04:18:37;;;;;;;44.03;20.92;;;8.30;99.90;;;;;;4981620;28;20080;-82
2021/11/17 04:21:08;;;;;;;39.80;20.92;;;8.20;99.90;;;;;;4972485;28;20027;-82
2021/11/17 04:24:01;;;;;;;43.67;21.50;;;8.30;99.90;;;;;;4972971;28;20105;-81
2021/11/17 04:26:35;;;;;;;41.88;20.75;;;8.30;99.90;;;;;;4972317;28;20041;-81
2021/11/17 04:29:09;;;;;;;;;;;8.30;99.90;;;;;;4972850;28;20088;-82
2021/11/17 04:31:41;;;;;;;37.50;19.95;;;8.30;99.90;;;;;;4971140;28;19906;-82
2021/11/17 04:34:13;;;;;;;45.60;21.40;;;8.30;99.90;;;;;;4972701;28;20027;-82
2021/11/17 04:37:17;;;;;;;42.38;20.92;;;8.30;99.90;;;;;;4973444;28;20034;-82
2021/11/17 04:39:51;;;;;;;40.60;19.60;;;8.30;99.90;;;;;;4970984;28;20030;-82
2021/11/17 04:42:17;;;;;;;52.22;21.88;;;8.40;99.90;;;;;;4970787;28;20035;-82
2021/11/17 04:44:57;;;;;;;42.58;21.85;;;8.40;99.90;;;;;;4972644;28;20034;-82
2021/11/17 04:47:28;;;;;;;40.40;20.45;;;8.50;99.90;;;;;;4973671;28;20034;-82
2021/11/17 04:50:11;;;;;;;41.38;21.10;;;8.50;99.90;;;;;;4971966;28;20494;-82
2021/11/17 04:53:22;;;;;;;44.33;20.50;;;8.60;99.90;;;;;;4970734;28;20435;-82
2021/11/17 04:55:48;;;;;;;44.15;20.98;;;8.70;99.90;;;;;;4966317;28;20035;-82
2021/11/17 04:58:13;;;;;;;40.63;20.38;;;8.80;99.90;;;;;;4971657;28;20027;-82
2021/11/17 05:01:07;;;;;;;39.25;19.90;;;8.80;99.90;;;;;;4972045;28;20089;-82
2021/11/17 05:03:42;;;;;;;38.95;19.55;;;8.90;99.90;;;;;;4972498;28;20033;-82
2021/11/17 05:06:31;;;;;;;37.78;19.88;;;8.90;99.90;;;;;;4971965;28;20031;-82
2021/11/17 05:09:06;;;;;;;39.53;19.30;;;9.00;99.90;;;;;;4973186;28;20049;-81
2021/11/17 05:11:38;;;;;;;40.45;20.20;;;9.00;99.90;;;;;;4972686;28;20090;-81
2021/11/17 05:14:15;;;;;;;38.95;20.25;;;9.10;99.90;;;;;;4972650;28;20639;-81
2021/11/17 05:17:22;;;;;;;35.72;18.73;;;9.10;99.90;;;;;;4971495;28;20019;-82
2021/11/17 05:20:30;;;;;;;36.20;18.52;;;9.20;99.90;;;;;;4971963;28;20097;-82
2021/11/17 05:23:14;;;;;;;42.35;19.58;;;9.20;99.90;;;;;;4965760;28;20031;-82
2021/11/17 05:25:55;;;;;;;39.90;18.73;;;9.20;99.90;;;;;;4971084;28;20041;-82
2021/11/17 05:28:35;;;;;;;37.10;18.75;;;9.30;99.90;;;;;;4971411;28;20026;-82
2021/11/17 05:31:17;;;;;;;37.58;18.58;;;9.30;99.90;;;;;;4972537;28;20045;-82
2021/11/17 05:34:08;;;;;;;39.22;18.33;;;9.30;99.90;;;;;;4971402;28;20471;-81
2021/11/17 05:36:43;;;;;;;37.58;18.80;;;9.30;99.90;;;;;;4967922;28;20031;-82
2021/11/17 05:39:17;;;;;;;38.70;18.13;;;9.40;99.90;;;;;;4962398;28;20430;-82
2021/11/17 05:41:49;;;;;;;37.65;18.77;;;9.40;99.90;;;;;;4969766;28;20329;-82
2021/11/17 05:44:20;;;;;;;40.38;19.33;;;9.40;99.90;;;;;;4970965;28;20027;-82
2021/11/17 05:47:01;;;;;;;34.45;18.27;;;9.40;99.90;;;;;;4968259;28;20030;-82
2021/11/17 05:49:46;;;;;;;34.08;18.65;;;9.50;99.90;;;;;;4967422;28;20058;-81
2021/11/17 05:52:34;;;;;;;40.28;18.45;;;9.50;99.90;;;;;;4969192;28;20537;-81
2021/11/17 05:55:09;;;;;;;35.00;18.13;;;9.50;99.90;;;;;;4971161;28;20097;-81
2021/11/17 05:57:56;;;;;;;36.05;18.35;;;9.50;99.90;;;;;;4971489;28;20473;-82
2021/11/17 06:00:40;;;;;;;38.92;19.05;;;9.50;99.90;;;;;;4970002;28;20054;-82
2021/11/17 06:03:20;;;;;;;40.23;19.73;;;9.60;99.90;;;;;;4971449;28;20019;-82
2021/11/17 06:05:46;;;;;;;38.63;18.77;;;9.70;99.90;;;;;;4972935;28;20026;-82
2021/11/17 06:08:11;;;;;;;35.78;18.90;;;9.70;99.90;;;;;;4974730;28;20050;-82
2021/11/17 06:10:41;;;;;;;38.38;18.95;;;9.70;99.90;;;;;;4974892;28;20038;-81
2021/11/17 06:13:10;;;;;;;37.40;18.05;;;9.70;99.90;;;;;;4974784;28;20047;-82
2021/11/17 06:15:39;;;;;;;39.30;19.58;;;9.70;99.90;;;;;;4985808;28;20029;-82
2021/11/17 06:18:08;;;;;;;38.17;19.02;;;9.70;99.90;;;;;;4987408;28;20022;-83
2021/11/17 06:20:36;;;;;;;35.72;19.17;;;9.70;99.90;;;;;;4985827;28;20032;-83
2021/11/17 06:23:08;;;;;;;44.78;20.90;;;9.70;99.90;;;;;;4985634;28;20026;-83
2021/11/17 06:25:37;;;;;;;34.20;17.00;;;9.60;99.90;;;;;;4985142;28;20023;-83
2021/11/17 06:28:04;;;;;;;35.25;17.38;;;9.60;99.90;;;;;;4984872;28;20018;-84
2021/11/17 06:30:34;;;;;;;34.05;18.15;;;9.60;99.90;;;;;;4985326;28;20054;-84
2021/11/17 06:33:01;;;;;;;35.35;18.30;;;9.70;99.90;;;;;;4984084;28;20026;-84
2021/11/17 06:35:27;;;;;;;34.60;17.42;;;9.70;99.90;;;;;;4984529;28;20026;-84
2021/11/17 06:37:56;;;;;;;33.35;17.83;;;9.60;99.90;;;;;;4984636;28;20023;-84
2021/11/17 06:40:22;;;;;;;41.17;18.77;;;9.60;99.90;;;;;;4984595;28;20015;-84
2021/11/17 06:42:54;;;;;;;35.25;18.10;;;9.70;99.90;;;;;;4984482;28;20030;-84
2021/11/17 06:45:22;;;;;;;34.65;17.77;;;9.60;99.90;;;;;;4985772;28;20023;-84
2021/11/17 06:47:49;;;;;;;32.45;17.45;;;9.70;99.90;;;;;;4984835;28;20023;-84
2021/11/17 06:50:17;;;;;;;35.88;17.83;;;9.70;99.90;;;;;;4984617;28;20077;-84
2021/11/17 06:52:43;;;;;;;32.60;17.92;;;9.70;99.90;;;;;;4983980;28;20425;-84
2021/11/17 06:55:10;;;;;;;37.15;17.60;;;9.70;99.90;;;;;;4984826;28;20101;-84
2021/11/17 06:57:36;;;;;;;34.45;17.83;;;9.70;99.90;;;;;;4984352;28;20072;-84
2021/11/17 07:00:11;;;;;;;31.50;17.50;;;9.70;99.90;;;;;;4985050;28;20027;-84
2021/11/17 07:02:37;;;;;;;29.02;16.42;;;9.70;99.90;;;;;;4984536;28;20214;-84
2021/11/17 07:05:04;;;;;;;33.58;16.63;;;9.70;99.90;;;;;;4984603;28;20106;-84
2021/11/17 07:07:29;;;;;;;29.85;15.93;;;9.60;99.90;;;;;;4983346;28;20097;-84
2021/11/17 07:09:55;;;;;;;32.88;17.23;;;9.60;99.90;;;;;;4984809;28;20041;-84
2021/11/17 07:12:21;;;;;;;30.98;15.80;;;9.60;99.90;;;;;;4985151;28;20207;-85
2021/11/17 07:14:47;;;;;;;30.48;15.32;;;9.60;99.90;;;;;;4984741;28;20077;-84
2021/11/17 07:17:13;;;;;;;32.35;15.75;;;9.60;99.90;;;;;;4984385;28;20021;-84
2021/11/17 07:19:39;;;;;;;28.48;15.02;;;9.70;99.90;;;;;;4984570;28;20101;-84
2021/11/17 07:22:07;;;;;;;27.92;14.20;;;9.80;99.90;;;;;;4984378;28;20251;-84
2021/11/17 07:24:34;;;;;;;29.75;15.68;;;9.80;99.90;;;;;;4984613;28;20053;-84
2021/11/17 07:27:00;;;;;;;25.65;14.82;;;9.80;99.90;;;;;;4984354;28;20023;-84
2021/11/17 07:29:27;;;;;;;27.23;14.43;;;9.90;99.90;;;;;;4984574;28;20204;-86
2021/11/17 07:31:53;;;;;;;22.10;13.20;;;9.90;99.90;;;;;;4985057;28;20279;-84
2021/11/17 07:34:19;;;;;;;27.42;15.82;;;9.90;99.90;;;;;;4983955;28;20034;-85
2021/11/17 07:36:46;;;;;;;23.80;14.05;;;9.90;99.90;;;;;;4984178;28;20358;-86
2021/11/17 07:39:15;;;;;;;27.05;14.75;;;9.90;99.90;;;;;;4984026;28;20154;-85
2021/11/17 07:41:52;;;;;;;27.33;14.50;;;9.90;99.90;;;;;;4983050;28;20340;-85
2021/11/17 07:44:18;;;;;;;27.13;14.32;;;9.90;99.90;;;;;;4982700;28;20030;-84
2021/11/17 07:46:46;;;;;;;26.40;15.20;;;10.00;99.90;;;;;;4983608;28;20015;-85
2021/11/17 07:49:14;;;;;;;30.73;15.10;;;10.00;99.90;;;;;;4983455;28;20074;-84
2021/11/17 07:51:40;;;;;;;28.70;16.05;;;10.00;99.90;;;;;;4984007;28;20019;-85
2021/11/17 07:54:06;;;;;;;34.95;15.50;;;10.00;99.90;;;;;;4984277;28;20254;-84
2021/11/17 07:56:34;;;;;;;28.10;16.38;;;10.10;99.90;;;;;;4984100;28;20061;-84
2021/11/17 07:59:01;;;;;;;32.05;17.23;;;10.20;99.90;;;;;;4982905;28;20313;-85
2021/11/17 08:01:28;;;;;;;42.17;23.38;;;10.20;99.90;;;;;;4984296;28;20023;-84
2021/11/17 08:03:54;;;;;;;59.53;32.08;;;10.30;99.90;;;;;;4984189;28;20046;-85
2021/11/17 08:06:23;;;;;;;41.50;23.08;;;10.40;99.90;;;;;;4984181;28;20026;-84
2021/11/17 08:08:49;;;;;;;36.38;19.85;;;10.40;99.90;;;;;;4982522;28;20031;-85
2021/11/17 08:11:15;;;;;;;39.05;20.92;;;10.50;99.90;;;;;;4984329;28;20041;-85
2021/11/17 08:13:42;;;;;;;37.28;19.52;;;10.50;99.90;;;;;;4982199;28;20045;-85
2021/11/17 08:16:09;;;;;;;34.83;19.02;;;10.60;99.90;;;;;;4966371;28;20027;-85
2021/11/17 08:18:38;;;;;;;37.55;19.73;;;10.60;99.90;;;;;;4983448;28;20082;-85
2021/11/17 08:21:04;;;;;;;36.60;18.73;;;10.70;99.90;;;;;;4984143;28;20014;-84
2021/11/17 08:23:31;;;;;;;33.08;18.50;;;10.80;99.90;;;;;;4982927;28;20051;-85
2021/11/17 08:25:57;;;;;;;37.80;18.15;;;10.70;99.90;;;;;;4983008;28;20180;-85
2021/11/17 08:28:23;;;;;;;39.55;19.05;;;10.70;99.90;;;;;;4982698;28;20429;-85
2021/11/17 08:30:50;;;;;;;35.00;18.95;;;10.70;99.90;;;;;;4983864;28;20311;-85
2021/11/17 08:33:17;;;;;;;36.50;18.40;;;10.70;99.90;;;;;;4982881;28;20014;-85
2021/11/17 08:35:45;;;;;;;37.70;18.95;;;10.70;99.90;;;;;;4983782;28;20222;-85
2021/11/17 08:38:16;;;;;;;31.73;18.83;;;10.60;99.90;;;;;;4983228;28;20046;-85
2021/11/17 08:40:48;;;;;;;32.80;19.40;;;10.60;99.90;;;;;;4982559;28;20030;-85
2021/11/17 08:43:15;;;;;;;36.60;18.75;;;10.60;99.90;;;;;;4981455;28;20030;-85
2021/11/17 08:45:41;;;;;;;41.75;18.83;;;10.70;99.90;;;;;;4983451;28;20015;-84
2021/11/17 08:48:09;;;;;;;32.05;19.08;;;10.90;99.90;;;;;;4982451;28;20065;-85
2021/11/17 08:50:36;;;;;;;36.30;21.42;;;11.10;99.90;;;;;;4980754;28;20030;-85
2021/11/17 08:53:05;;;;;;;39.40;22.15;;;11.40;99.90;;;;;;4977839;28;20248;-85
2021/11/17 08:55:32;;;;;;;40.40;22.73;;;11.70;99.90;;;;;;4972146;28;20069;-85
2021/11/17 08:57:58;;;;;;;37.40;21.08;;;11.90;99.90;;;;;;4972645;28;20098;-85
2021/11/17 09:00:25;;;;;;;34.05;18.63;;;12.00;99.90;;;;;;4971423;28;20483;-85
2021/11/17 09:02:52;;;;;;;29.20;17.65;;;12.10;99.90;;;;;;4972781;28;20487;-84
2021/11/17 09:05:21;;;;;;;38.50;19.25;;;12.20;99.90;;;;;;4972670;28;20121;-84
2021/11/17 09:07:48;;;;;;;34.13;18.88;;;12.20;99.90;;;;;;4972383;28;20407;-88
2021/11/17 09:10:18;;;;;;;27.08;17.55;;;12.20;99.90;;;;;;4972150;28;20089;-85
2021/11/17 09:12:46;;;;;;;30.25;17.95;;;12.30;99.90;;;;;;4972019;28;20097;-85
2021/11/17 09:15:13;;;;;;;35.00;19.33;;;12.40;99.90;;;;;;4970999;28;20033;-85
2021/11/17 09:17:40;;;;;;;32.40;18.90;;;12.40;99.90;;;;;;4972384;28;20018;-85
2021/11/17 09:20:07;;;;;;;23.05;15.15;;;12.40;99.90;;;;;;4972217;28;20030;-85
2021/11/17 09:22:33;;;;;;;30.45;17.10;;;12.40;99.90;;;;;;4972248;28;20027;-85
2021/11/17 09:25:00;;;;;;;26.05;15.00;;;12.40;99.90;;;;;;4972302;28;20019;-85
2021/11/17 09:27:27;;;;;;;30.50;16.02;;;12.50;99.90;;;;;;4972232;28;20047;-85
2021/11/17 09:29:52;;;;;;;27.95;14.70;;;12.40;99.90;;;;;;4972261;28;20043;-85
2021/11/17 09:32:18;;;;;;;29.23;15.40;;;12.40;99.90;;;;;;4972355;28;20031;-85
2021/11/17 09:34:44;;;;;;;19.75;11.98;;;12.50;99.90;;;;;;4972298;28;20026;-85
2021/11/17 09:37:11;;;;;;;21.60;13.07;;;12.40;99.90;;;;;;4970884;28;20085;-85
2021/11/17 09:39:38;;;;;;;19.02;12.50;;;12.30;99.90;;;;;;4972247;28;20027;-85
2021/11/17 09:42:05;;;;;;;21.77;11.88;;;12.30;99.90;;;;;;4975866;28;20022;-86
2021/11/17 09:44:36;;;;;;;19.27;10.57;;;12.30;99.90;;;;;;4975799;28;20027;-87
2021/11/17 09:47:06;;;;;;;21.02;11.57;;;12.30;99.90;;;;;;4975688;28;20082;-85
2021/11/17 09:49:47;;;;;;;21.48;14.43;;;12.30;99.90;;;;;;4975464;28;20119;-85
2021/11/17 09:52:17;;;;;;;26.88;14.70;;;12.40;99.90;;;;;;4975564;28;20023;-85
2021/11/17 09:54:59;;;;;;;29.25;16.15;;;12.30;99.90;;;;;;4975548;28;20045;-85
2021/11/17 09:57:32;;;;;;;24.10;16.48;;;12.40;99.90;;;;;;4975571;28;20368;-86
2021/11/17 10:00:12;;;;;;;33.85;20.05;;;12.40;99.90;;;;;;4975501;28;20058;-85
2021/11/17 10:02:42;;;;;;;27.27;16.25;;;12.40;99.90;;;;;;4973951;28;20027;-85
2021/11/17 10:05:23;;;;;;;31.38;17.85;;;12.50;99.90;;;;;;4975870;28;20053;-92
2021/11/17 10:14:10;;;;;;;18.73;9.48;;;12.80;99.90;;;;;;4975767;28;20030;-86
2021/11/17 10:16:37;;;;;;;15.32;11.25;;;12.90;99.90;;;;;;4947825;28;20034;-85
2021/11/17 10:19:35;;;;;;;15.57;11.30;;;12.90;99.90;;;;;;4975922;28;20383;-85
2021/11/17 10:22:10;;;;;;;18.15;9.40;;;12.90;99.90;;;;;;4952531;28;20043;-86
2021/11/17 10:24:49;;;;;;;13.18;9.00;;;13.00;99.90;;;;;;4975343;28;20058;-86
2021/11/17 10:27:22;;;;;;;13.95;8.30;;;13.00;99.90;;;;;;4974085;28;20027;-87
2021/11/17 10:30:07;;;;;;;13.77;7.90;;;13.00;99.90;;;;;;4975282;28;20039;-86
2021/11/17 10:32:41;;;;;;;;;;;13.20;99.90;;;;;;4975943;28;20027;-86
2021/11/17 10:35:24;;;;;;;12.05;7.13;;;13.20;99.90;;;;;;4976137;28;19906;-86
2021/11/17 10:38:01;;;;;;;11.38;7.15;;;13.40;99.90;;;;;;4975526;28;20023;-86
2021/11/17 10:40:32;;;;;;;11.70;8.07;;;13.60;99.90;;;;;;4975331;28;20035;-88
2021/11/17 10:43:04;;;;;;;11.27;7.43;;;13.70;99.90;;;;;;4973221;28;20117;-85
2021/11/17 10:45:45;;;;;;;12.13;7.45;;;13.70;99.90;;;;;;4973273;28;20027;-86
2021/11/17 10:48:36;;;;;;;11.02;6.55;;;13.70;99.90;;;;;;4974716;28;20438;-86
2021/11/17 10:51:17;;;;;;;10.82;6.65;;;13.70;99.90;;;;;;4974264;28;20073;-85
2021/11/17 10:53:51;;;;;;;9.50;6.13;;;13.60;99.90;;;;;;4974355;28;20387;-86
2021/11/17 10:56:20;;;;;;;10.50;6.55;;;13.50;99.90;;;;;;4974382;28;20043;-86
2021/11/17 10:58:48;;;;;;;14.30;7.10;;;13.60;99.90;;;;;;4974449;28;20034;-86
2021/11/17 11:01:20;;;;;;;16.77;10.65;;;13.60;99.90;;;;;;4974490;28;20077;-86
2021/11/17 11:03:49;;;;;;;21.38;14.45;;;13.50;99.90;;;;;;4972898;28;20030;-85
2021/11/17 11:06:43;;;;;;;31.83;21.38;;;13.50;99.90;;;;;;4974464;28;20023;-85
2021/11/17 11:09:28;;;;;;;13.05;6.50;;;13.40;99.90;;;;;;4973979;28;20559;-85
2021/11/17 11:11:56;;;;;;;10.07;6.35;;;13.30;99.90;;;;;;4973096;28;20117;-85
2021/11/17 11:14:35;;;;;;;15.15;7.97;;;13.30;99.90;;;;;;4973010;28;20023;-85
2021/11/17 11:17:26;;;;;;;16.65;11.35;;;13.30;99.90;;;;;;4974148;28;20090;-86
2021/11/17 11:20:12;;;;;;;16.52;9.20;;;13.30;99.90;;;;;;4972820;28;20057;-85
2021/11/17 11:23:13;;;;;;;10.77;6.40;;;13.40;99.90;;;;;;4973781;28;20112;-85
2021/11/17 11:25:52;;;;;;;13.57;7.18;;;13.50;99.90;;;;;;4973640;28;20015;-86
2021/11/17 11:28:21;;;;;;;11.18;7.35;;;13.60;99.90;;;;;;4974715;28;20027;-86
2021/11/17 11:31:10;;;;;;;9.73;6.00;;;13.60;99.90;;;;;;4973180;28;20031;-88
2021/11/17 11:33:55;;;;;;;12.68;6.68;;;13.60;99.90;;;;;;4977553;28;20030;-86
2021/11/17 11:36:46;;;;;;;12.45;6.25;;;13.70;99.90;;;;;;4972212;28;20042;-86
2021/11/17 11:39:11;;;;;;;12.88;5.97;;;13.90;99.90;;;;;;4974178;28;20105;-86
2021/11/17 11:42:07;;;;;;;10.77;5.60;;;14.00;99.90;;;;;;4973303;28;20357;-86
2021/11/17 11:44:49;;;;;;;10.65;5.60;;;14.30;99.90;;;;;;4971645;28;20027;-86
2021/11/17 11:47:21;;;;;;;12.52;7.47;;;14.40;99.90;;;;;;4974960;28;20027;-86
2021/11/17 11:49:49;;;;;;;11.05;5.85;;;14.50;99.90;;;;;;4972206;28;20530;-86
2021/11/17 11:52:31;;;;;;;8.57;5.55;;;14.30;99.90;;;;;;4975218;28;20031;-86
2021/11/17 11:55:00;;;;;;;9.35;5.55;;;14.30;99.90;;;;;;4973306;28;20415;-87
2021/11/17 11:57:49;;;;;;;9.02;5.82;;;14.30;99.90;;;;;;4971320;28;20510;-89
2021/11/17 12:00:30;;;;;;;9.07;6.00;;;14.40;99.90;;;;;;4971892;28;20023;-87
2021/11/17 12:03:11;;;;;;;7.57;5.13;;;14.60;99.90;;;;;;4970305;28;20054;-88
2021/11/17 12:05:40;;;;;;;8.38;4.97;;;14.70;99.90;;;;;;4969553;28;20045;-87
2021/11/17 12:08:24;;;;;;;6.60;3.60;;;14.50;99.90;;;;;;4971209;28;20019;-87
2021/11/17 12:11:02;;;;;;;9.68;4.90;;;14.50;99.90;;;;;;4969946;28;20039;-87
2021/11/17 12:13:35;;;;;;;7.80;4.90;;;14.80;99.90;;;;;;4971470;28;20499;-88
2021/11/17 12:16:07;;;;;;;5.72;4.32;;;14.90;99.90;;;;;;4971480;28;20458;-87
2021/11/17 12:18:58;;;;;;;6.25;4.43;;;15.10;99.90;;;;;;4972855;28;20391;-87
2021/11/17 12:21:38;;;;;;;9.73;6.07;;;15.20;99.90;;;;;;4972743;28;20070;-86
2021/11/17 12:24:24;;;;;;;8.90;6.03;;;15.10;99.90;;;;;;4972948;28;20026;-87
2021/11/17 12:26:59;;;;;;;36.90;21.00;;;14.90;99.90;;;;;;4971545;28;20538;-88
2021/11/17 12:29:28;;;;;;;126.85;60.85;;;14.70;99.90;;;;;;4972443;28;20086;-87
2021/11/17 12:32:03;;;;;;;31.35;18.67;;;14.60;99.90;;;;;;4972000;28;20043;-87
2021/11/17 12:34:48;;;;;;;8.10;4.45;;;14.60;99.90;;;;;;4987326;28;20022;-87
2021/11/17 12:37:25;;;;;;;;;;;14.50;99.90;;;;;;4993784;28;20042;-86
2021/11/17 12:40:09;;;;;;;8.55;5.72;;;14.50;99.90;;;;;;4993722;28;19916;-87
2021/11/17 12:42:40;;;;;;;7.90;6.00;;;14.40;99.90;;;;;;4991847;28;20027;-88
2021/11/17 12:45:28;;;;;;;9.77;6.90;;;14.30;99.90;;;;;;4986591;28;20026;-87
2021/11/17 12:47:56;;;;;;;10.82;5.13;;;14.30;99.90;;;;;;4993795;28;20023;-87
2021/11/17 12:50:40;;;;;;;11.10;5.50;;;14.30;99.90;;;;;;4992631;28;20038;-87
2021/11/17 12:53:24;;;;;;;6.95;4.63;;;14.30;99.90;;;;;;4993244;28;20046;-86
2021/11/17 12:55:56;;;;;;;7.40;5.18;;;14.20;99.90;;;;;;4991988;28;20111;-86
2021/11/17 12:58:33;;;;;;;8.25;4.88;;;14.20;99.90;;;;;;4993588;28;20023;-87
2021/11/17 13:01:29;;;;;;;9.55;5.40;;;14.20;99.90;;;;;;4982329;28;20404;-87
2021/11/17 13:04:13;;;;;;;9.90;5.80;;;14.10;99.90;;;;;;4972280;28;20034;-87
2021/11/17 13:06:41;;;;;;;10.53;5.83;;;14.00;99.90;;;;;;4970718;28;20447;-87
2021/11/17 13:09:23;;;;;;;10.35;5.95;;;14.10;99.90;;;;;;4972059;28;20074;-87
2021/11/17 13:12:03;;;;;;;12.05;6.10;;;14.10;99.90;;;;;;4972133;28;20482;-87
2021/11/17 13:14:47;;;;;;;10.63;5.60;;;14.00;99.90;;;;;;4972000;28;20042;-88
2021/11/17 13:17:32;;;;;;;10.18;6.00;;;14.00;99.90;;;;;;4972052;28;20030;-87
2021/11/17 13:20:23;;;;;;;10.60;5.78;;;14.00;99.90;;;;;;4971906;28;20071;-87
2021/11/17 13:23:09;;;;;;;9.82;6.20;;;14.00;99.90;;;;;;4971626;28;20101;-87
2021/11/17 13:25:54;;;;;;;9.93;6.30;;;14.00;99.90;;;;;;4971828;28;20290;-88
2021/11/17 13:28:45;;;;;;;7.50;4.85;;;14.10;99.90;;;;;;4971789;28;20102;-87
2021/11/17 13:31:39;;;;;;;9.57;5.75;;;14.10;99.90;;;;;;4971784;28;20027;-87
2021/11/17 13:34:09;;;;;;;10.63;5.90;;;14.30;99.90;;;;;;4971731;28;20042;-91
2021/11/17 13:36:41;;;;;;;8.60;5.20;;;14.60;99.90;;;;;;4971688;28;20101;-92
2021/11/17 13:39:07;;;;;;;9.50;4.75;;;14.80;99.90;;;;;;4971647;28;20042;-87
2021/11/17 13:41:34;;;;;;;7.10;4.53;;;14.90;99.90;;;;;;4971648;28;20033;-87
2021/11/17 13:44:01;;;;;;;7.60;4.90;;;14.90;99.90;;;;;;4971591;28;20112;-91
2021/11/17 13:46:27;;;;;;;8.25;4.50;;;14.70;99.90;;;;;;4971579;28;20026;-88
2021/11/17 13:48:53;;;;;;;9.60;5.53;;;14.60;99.90;;;;;;4971683;28;20050;-87
2021/11/17 13:51:23;;;;;;;15.75;9.75;;;14.50;99.90;;;;;;4970086;28;20030;-88
2021/11/17 13:53:50;;;;;;;10.80;6.28;;;14.40;99.90;;;;;;4971491;28;20479;-87
2021/11/17 13:56:27;;;;;;;9.40;5.75;;;14.40;99.90;;;;;;4971417;28;20051;-89
2021/11/17 13:58:54;;;;;;;9.30;4.88;;;14.50;99.90;;;;;;4971506;28;20467;-90
2021/11/17 14:01:20;;;;;;;6.22;4.28;;;14.50;99.90;;;;;;4970310;28;20034;-87
2021/11/17 14:03:45;;;;;;;6.65;3.80;;;14.60;99.90;;;;;;4971312;28;20483;-88
2021/11/17 14:06:16;;;;;;;8.60;4.03;;;14.60;99.90;;;;;;4971434;28;20019;-87
2021/11/17 14:08:42;;;;;;;8.75;5.07;;;14.70;99.90;;;;;;4971255;28;20034;-89
2021/11/17 14:11:09;;;;;;;8.68;4.82;;;14.80;99.90;;;;;;4971589;28;20511;-87
2021/11/17 14:13:35;;;;;;;7.18;3.40;;;14.90;99.90;;;;;;4973366;28;20515;-88
2021/11/17 14:16:01;;;;;;;6.72;3.92;;;15.00;99.90;;;;;;4971506;28;20034;-92
2021/11/17 14:18:29;;;;;;;7.03;4.03;;;15.10;99.90;;;;;;4971787;28;20427;-87
2021/11/17 14:20:56;;;;;;;6.70;3.03;;;15.10;99.90;;;;;;4971223;28;20144;-87
2021/11/17 14:23:22;;;;;;;5.40;3.00;;;15.20;99.90;;;;;;4971362;28;20047;-87
2021/11/17 14:25:48;;;;;;;3.53;2.05;;;15.20;99.90;;;;;;4971513;28;20073;-88
2021/11/17 14:28:36;;;;;;;4.10;2.28;;;15.30;99.90;;;;;;4975133;28;20074;-87
2021/11/17 14:31:25;;;;;;;8.40;2.20;;;15.20;99.90;;;;;;4974963;28;20042;-89
2021/11/17 14:34:00;;;;;;;3.92;1.70;;;15.10;99.90;;;;;;4974809;28;20042;-87
2021/11/17 14:36:33;;;;;;;3.65;1.30;;;15.00;99.90;;;;;;4974827;28;20027;-87
2021/11/17 14:39:01;;;;;;;4.10;1.50;;;15.10;99.90;;;;;;4975096;28;20531;-88
2021/11/17 14:41:27;;;;;;;4.28;1.60;;;15.00;99.90;;;;;;4973554;28;20382;-91
2021/11/17 14:43:53;;;;;;;3.33;2.10;;;14.80;99.90;;;;;;4974755;28;20027;-87
2021/11/17 14:46:19;;;;;;;24.55;13.88;;;14.70;99.90;;;;;;4974647;28;20077;-87
2021/11/17 14:48:45;;;;;;;5.43;3.30;;;14.60;99.90;;;;;;4974457;28;20476;-87
2021/11/17 14:51:12;;;;;;;4.43;2.50;;;14.60;99.90;;;;;;4974678;28;20106;-88
2021/11/17 14:53:41;;;;;;;8.25;5.30;;;14.60;99.90;;;;;;4974280;28;20089;-87
2021/11/17 14:56:08;;;;;;;5.88;2.28;;;14.70;99.90;;;;;;4974156;28;20105;-87
2021/11/17 14:58:34;;;;;;;4.75;2.00;;;14.60;99.90;;;;;;4974421;28;20023;-87
2021/11/17 15:01:03;;;;;;;2.05;1.05;;;14.60;99.90;;;;;;4974312;28;20027;-87
2021/11/17 15:03:29;;;;;;;2.80;2.05;;;14.40;99.90;;;;;;4974572;28;20019;-87
2021/11/17 15:05:55;;;;;;;5.03;2.55;;;14.40;99.90;;;;;;4973117;28;20030;-87
2021/11/17 15:08:20;;;;;;;4.13;2.50;;;14.30;99.90;;;;;;4972753;28;20391;-89
2021/11/17 15:10:47;;;;;;;6.32;4.15;;;14.20;99.90;;;;;;4974205;28;20031;-87
2021/11/17 15:13:14;;;;;;;5.40;3.20;;;14.20;99.90;;;;;;4974139;28;20034;-92
2021/11/17 15:15:44;;;;;;;5.57;1.70;;;14.30;99.90;;;;;;4974046;28;20034;-88
2021/11/17 15:18:10;;;;;;;8.90;5.35;;;14.30;99.90;;;;;;4973928;28;20073;-87
2021/11/17 15:20:37;;;;;;;5.80;2.53;;;14.30;99.90;;;;;;4974098;28;20022;-87
2021/11/17 15:23:07;;;;;;;13.23;6.20;;;14.40;99.90;;;;;;4973960;28;20147;-89
2021/11/17 15:25:37;;;;;;;8.55;3.95;;;14.40;99.90;;;;;;4973973;28;20026;-87
2021/11/17 15:28:15;;;;;;;7.63;3.10;;;14.50;99.90;;;;;;4973931;28;20019;-87
2021/11/17 15:30:49;;;;;;;4.72;2.13;;;14.60;99.90;;;;;;4974127;28;20368;-87
2021/11/17 15:33:15;;;;;;;7.20;4.35;;;14.60;99.90;;;;;;4973642;28;20066;-89
2021/11/17 15:35:42;;;;;;;8.48;4.80;;;14.50;99.90;;;;;;4973656;28;20031;-87
2021/11/17 15:38:09;;;;;;;5.43;3.22;;;14.50;99.90;;;;;;4972282;28;20031;-87
2021/11/17 15:40:39;;;;;;;6.55;2.80;;;14.40;99.90;;;;;;4973871;28;20034;-87
2021/11/17 15:43:05;;;;;;;4.85;2.47;;;14.20;99.90;;;;;;4974060;28;20034;-87
2021/11/17 15:45:31;;;;;;;3.88;2.15;;;14.10;99.90;;;;;;4973518;28;20057;-88
2021/11/17 15:47:57;;;;;;;11.70;5.47;;;13.80;99.90;;;;;;4973340;28;20046;-87
2021/11/17 15:50:27;;;;;;;14.35;8.52;;;13.70;99.90;;;;;;4973466;28;20483;-87